Time;durP1;ratioP1;P1;durP2;ratioP2;P2;SDS_P1;SDS_P2;PMS_P1;PMS_P2;Temp;Humidity;BMP_temperature;BMP_pressure;BME280_temperature;BME280_humidity;BME280_pressure;Samples;Min_cycle;Max_cycle;Signal;HPM_P1;HPM_P2
2023/03/12 00:02:02;;;;;;;9.63;3.97;;;;;;;-3.53;100.00;98483.28;4931280;28;20434;-77
2023/03/12 00:04:27;;;;;;;12.05;3.60;;;;;;;-3.78;100.00;98452.66;4917452;28;20024;-77
2023/03/12 00:06:52;;;;;;;9.80;3.85;;;;;;;-3.88;100.00;98456.97;4897565;29;20063;-78
2023/03/12 00:09:18;;;;;;;6.63;3.33;;;;;;;-4.04;100.00;98428.28;4899129;28;20119;-77
2023/03/12 00:11:43;;;;;;;11.98;3.92;;;;;;;-3.88;100.00;98457.81;4914131;28;20040;-77
2023/03/12 00:14:08;;;;;;;9.63;3.90;;;;;;;-3.65;100.00;98476.31;4906936;29;20036;-76
2023/03/12 00:16:33;;;;;;;7.45;3.38;;;;;;;-3.79;100.00;98472.13;4915089;29;20126;-77
2023/03/12 00:18:59;;;;;;;8.93;4.13;;;;;;;-3.70;100.00;98475.84;4899397;28;20032;-77
2023/03/12 00:21:24;;;;;;;10.48;4.38;;;;;;;-3.92;100.00;98466.97;4899526;28;20036;-76
2023/03/12 00:23:51;;;;;;;10.88;4.40;;;;;;;-3.93;100.00;98483.78;4912309;28;20075;-77
2023/03/12 00:26:18;;;;;;;8.27;4.57;;;;;;;-4.18;100.00;98451.34;4909335;29;20032;-77
2023/03/12 00:28:43;;;;;;;9.75;4.25;;;;;;;-4.03;100.00;98488.13;4913089;28;20046;-76
2023/03/12 00:31:16;;;;;;;11.43;4.80;;;;;;;-3.92;100.00;98492.56;4915089;28;20484;-78
2023/03/12 00:33:42;;;;;;;18.98;5.25;;;;;;;-3.90;100.00;98472.97;4960721;28;20052;-78
2023/03/12 00:36:08;;;;;;;9.57;4.95;;;;;;;-3.79;100.00;98482.69;4938188;28;20060;-76
2023/03/12 00:38:33;;;;;;;13.82;5.28;;;;;;;-3.81;100.00;98474.88;4906602;28;20036;-76
2023/03/12 00:40:58;;;;;;;8.05;4.63;;;;;;;-3.97;100.00;98450.63;4927152;28;20063;-77
2023/03/12 00:43:23;;;;;;;9.38;4.55;;;;;;;-3.82;100.00;98472.38;4903746;29;20090;-77
2023/03/12 00:45:49;;;;;;;12.77;4.30;;;;;;;-3.71;100.00;98484.75;4914648;29;20059;-76
2023/03/12 00:48:14;;;;;;;7.45;3.88;;;;;;;-3.80;100.00;98471.28;4903291;29;20154;-77
2023/03/12 00:50:39;;;;;;;9.55;4.43;;;;;;;-3.85;100.00;98462.88;4918848;28;20482;-76
2023/03/12 00:53:05;;;;;;;12.45;5.63;;;;;;;-3.87;100.00;98456.03;4914800;28;20401;-76
2023/03/12 00:55:30;;;;;;;10.98;6.22;;;;;;;-3.97;100.00;98448.81;4911758;28;20036;-76
2023/03/12 00:57:55;;;;;;;10.88;5.63;;;;;;;-4.08;100.00;98438.25;4912602;29;20497;-76
2023/03/12 01:00:21;;;;;;;10.98;5.28;;;;;;;-3.90;100.00;98478.25;4917845;28;20509;-77
2023/03/12 01:02:46;;;;;;;9.23;4.15;;;;;;;-4.02;100.00;98445.69;4906822;29;20116;-77
2023/03/12 01:05:12;;;;;;;8.43;4.32;;;;;;;-4.12;100.00;98452.66;4914420;29;20039;-76
2023/03/12 01:07:38;;;;;;;9.55;3.75;;;;;;;-4.07;100.00;98453.16;4938406;23;20032;-73
2023/03/12 01:10:04;;;;;;;10.55;4.25;;;;;;;-3.95;100.00;98467.22;4912122;28;20377;-73
2023/03/12 01:12:29;;;;;;;9.27;4.15;;;;;;;-3.93;100.00;98470.59;4915257;29;20028;-74
2023/03/12 01:14:55;;;;;;;10.80;5.10;;;;;;;-4.01;100.00;98468.53;4921686;28;20028;-76
2023/03/12 01:17:20;;;;;;;18.17;5.38;;;;;;;-4.07;100.00;98466.34;4975572;28;20040;-74
2023/03/12 01:19:45;;;;;;;13.18;4.72;;;;;;;-4.03;100.00;98464.34;4913107;28;20028;-75
2023/03/12 01:22:11;;;;;;;10.93;4.38;;;;;;;-3.99;100.00;98452.53;4915198;29;20380;-75
2023/03/12 01:24:36;;;;;;;9.38;4.45;;;;;;;-3.93;100.00;98452.09;4923086;28;20082;-75
2023/03/12 01:27:01;;;;;;;7.90;4.45;;;;;;;-4.01;100.00;98465.91;4915069;28;20036;-75
2023/03/12 01:29:27;;;;;;;7.75;4.38;;;;;;;-4.14;100.00;98438.72;4918718;28;20059;-75
2023/03/12 01:31:52;;;;;;;8.45;4.45;;;;;;;-3.96;100.00;98473.44;4912078;28;20039;-73
2023/03/12 01:34:17;;;;;;;11.05;4.30;;;;;;;-3.80;100.00;98473.06;4919550;28;20476;-75
2023/03/12 01:36:43;;;;;;;12.88;4.32;;;;;;;-3.71;100.00;98472.38;4926257;28;20045;-75
2023/03/12 01:39:10;;;;;;;13.25;3.65;;;;;;;-3.59;100.00;98483.75;4918230;28;20118;-75
2023/03/12 01:41:35;;;;;;;12.35;3.95;;;;;;;-3.65;100.00;98478.97;4924754;28;20499;-73
2023/03/12 01:44:02;;;;;;;10.10;3.78;;;;;;;-3.65;100.00;98460.47;4914481;29;20032;-74
2023/03/12 01:46:37;;;;;;;10.15;4.20;;;;;;;-3.63;100.00;98462.00;4911437;28;20043;-75
2023/03/12 01:49:07;;;;;;;8.93;4.32;;;;;;;-3.57;100.00;98473.91;4912943;28;20024;-75
2023/03/12 01:51:41;;;;;;;7.57;3.55;;;;;;;-3.55;100.00;98466.69;4917945;28;20230;-72
2023/03/12 01:54:12;;;;;;;9.25;4.65;;;;;;;-3.47;100.00;98463.44;4903391;28;20051;-74
2023/03/12 01:56:38;;;;;;;10.65;4.35;;;;;;;-3.29;100.00;98477.81;4920843;28;20055;-74
2023/03/12 01:59:11;;;;;;;13.10;4.65;;;;;;;-3.18;100.00;98477.78;4922547;28;20552;-75
2023/03/12 02:01:38;;;;;;;15.32;4.90;;;;;;;-3.13;100.00;98474.78;4908388;28;20033;-75
2023/03/12 02:04:04;;;;;;;9.68;4.38;;;;;;;-3.18;100.00;98471.66;4913445;29;20508;-74
2023/03/12 02:06:48;;;;;;;10.68;4.20;;;;;;;-3.31;100.00;98456.78;4932475;28;20022;-74
2023/03/12 02:09:13;;;;;;;19.23;4.47;;;;;;;-3.33;100.00;98452.56;4905301;29;20036;-75
2023/03/12 02:11:39;;;;;;;9.10;4.68;;;;;;;-3.27;100.00;98462.69;4913724;28;20171;-75
2023/03/12 02:14:04;;;;;;;11.40;3.97;;;;;;;-3.26;100.00;98464.34;4917154;28;20035;-75
2023/03/12 02:16:30;;;;;;;12.68;5.25;;;;;;;-3.26;100.00;98458.22;4956925;28;20031;-74
2023/03/12 02:18:58;;;;;;;9.55;4.38;;;;;;;-3.35;100.00;98430.72;4913908;29;20028;-75
2023/03/12 02:21:32;;;;;;;6.68;3.08;;;;;;;-3.18;100.00;98469.84;4906004;28;20043;-74
2023/03/12 02:24:29;;;;;;;9.30;4.00;;;;;;;-3.14;100.00;98466.00;4928168;28;20389;-74
2023/03/12 02:26:55;;;;;;;12.05;3.80;;;;;;;-2.96;100.00;98465.44;4912394;28;20033;-75
2023/03/12 02:29:21;;;;;;;10.02;3.80;;;;;;;-3.03;100.00;98453.69;4913865;29;20381;-74
2023/03/12 02:31:51;;;;;;;10.52;4.07;;;;;;;-2.92;100.00;98464.22;4912313;28;20032;-75
2023/03/12 02:34:16;;;;;;;10.07;4.18;;;;;;;-2.95;100.00;98461.84;4914340;28;20093;-74
2023/03/12 02:36:42;;;;;;;8.63;3.38;;;;;;;-3.13;100.00;98441.22;4924308;28;20443;-74
2023/03/12 02:39:10;;;;;;;9.32;3.80;;;;;;;-2.98;100.00;98462.94;4928339;28;20028;-75
2023/03/12 02:41:40;;;;;;;11.23;3.53;;;;;;;-2.96;100.00;98468.09;4913072;29;20106;-75
2023/03/12 02:44:08;;;;;;;7.65;3.40;;;;;;;-2.88;100.00;98463.03;4928157;28;20134;-75
2023/03/12 02:46:40;;;;;;;7.35;2.72;;;;;;;-2.97;100.00;98438.13;4919361;28;20028;-75
2023/03/12 02:49:05;;;;;;;9.48;3.58;;;;;;;-3.05;100.00;98432.63;4904789;29;20106;-74
2023/03/12 02:51:30;;;;;;;9.38;3.63;;;;;;;-2.94;100.00;98455.56;4912022;28;20023;-74
2023/03/12 02:53:56;;;;;;;7.95;3.33;;;;;;;-2.98;100.00;98447.06;4913300;28;20477;-75
2023/03/12 02:56:24;;;;;;;12.30;3.72;;;;;;;-2.92;100.00;98449.19;4913592;28;20028;-75
2023/03/12 02:58:49;;;;;;;10.40;4.15;;;;;;;-2.74;100.00;98435.41;4912991;29;20088;-73
2023/03/12 03:01:16;;;;;;;7.90;3.80;;;;;;;-2.68;100.00;98448.94;4913156;29;20115;-72
2023/03/12 03:03:41;;;;;;;9.45;3.80;;;;;;;-2.67;100.00;98444.50;4912360;29;20103;-74
2023/03/12 03:06:06;;;;;;;7.47;4.10;;;;;;;-2.62;100.00;98441.44;4911599;28;20131;-73
2023/03/12 03:08:32;;;;;;;11.77;3.95;;;;;;;-2.69;100.00;98418.16;4911688;28;20468;-74
2023/03/12 03:10:57;;;;;;;8.15;3.72;;;;;;;-2.65;100.00;98414.28;4908555;28;20115;-73
2023/03/12 03:13:23;;;;;;;11.00;4.20;;;;;;;-2.52;100.00;98422.00;4912994;28;20512;-73
2023/03/12 03:15:48;;;;;;;12.52;4.80;;;;;;;-2.56;100.00;98414.47;4922993;28;20105;-74
2023/03/12 03:18:13;;;;;;;8.65;4.53;;;;;;;-2.53;100.00;98436.22;4915049;28;20059;-74
2023/03/12 03:20:39;;;;;;;12.85;4.68;;;;;;;-2.65;100.00;98421.38;4913446;28;20032;-73
2023/03/12 03:23:04;;;;;;;10.02;4.88;;;;;;;-2.65;100.00;98432.81;4935553;28;20517;-74
2023/03/12 03:25:31;;;;;;;10.68;5.15;;;;;;;-2.73;100.00;98410.59;4917067;29;20025;-73
2023/03/12 03:27:56;;;;;;;8.65;4.72;;;;;;;-2.98;100.00;98380.88;4915724;28;20028;-74
2023/03/12 03:30:22;;;;;;;7.85;4.35;;;;;;;-2.79;100.00;98419.06;4917341;28;20170;-73
2023/03/12 03:32:48;;;;;;;9.57;4.13;;;;;;;-2.52;100.00;98432.59;4918054;28;20024;-73
2023/03/12 03:35:14;;;;;;;13.43;4.15;;;;;;;-2.62;100.00;98407.03;4917310;28;20504;-74
2023/03/12 03:37:39;;;;;;;8.43;4.25;;;;;;;-2.72;100.00;98391.09;4920164;28;20055;-73
2023/03/12 03:40:06;;;;;;;14.63;4.20;;;;;;;-2.44;100.00;98434.59;4975060;28;20107;-74
2023/03/12 03:42:31;;;;;;;10.50;4.00;;;;;;;-2.36;100.00;98436.59;4918335;29;20028;-74
2023/03/12 03:44:56;;;;;;;9.52;4.45;;;;;;;-2.60;100.00;98397.97;4927909;28;20028;-74
2023/03/12 03:47:22;;;;;;;14.52;4.10;;;;;;;-2.60;100.00;98384.75;4946278;28;20541;-72
2023/03/12 03:49:47;;;;;;;7.90;3.88;;;;;;;-2.50;100.00;98390.94;4924869;28;20034;-74
2023/03/12 03:52:12;;;;;;;10.38;3.85;;;;;;;-2.35;100.00;98412.63;4939565;28;20064;-74
2023/03/12 03:54:38;;;;;;;12.07;4.00;;;;;;;-2.39;100.00;98397.97;4915304;29;20028;-74
2023/03/12 03:57:03;;;;;;;9.27;4.00;;;;;;;-2.19;100.00;98421.91;4916087;28;20408;-73
2023/03/12 03:59:28;;;;;;;12.23;3.40;;;;;;;-2.10;100.00;98416.66;4916529;28;20074;-74
2023/03/12 04:01:54;;;;;;;11.20;3.33;;;;;;;-1.99;100.00;98429.00;4918377;29;20079;-74
2023/03/12 04:04:20;;;;;;;9.65;3.78;;;;;;;-2.06;100.00;98410.13;4915321;29;20035;-75
2023/03/12 04:06:45;;;;;;;6.78;3.55;;;;;;;-2.02;100.00;98406.25;4933172;28;20456;-74
2023/03/12 04:09:11;;;;;;;7.75;2.90;;;;;;;-2.03;100.00;98396.59;4914722;28;20067;-74
2023/03/12 04:11:36;;;;;;;7.82;3.70;;;;;;;-2.02;100.00;98387.69;4912595;28;20111;-74
2023/03/12 04:14:02;;;;;;;9.05;3.53;;;;;;;-1.84;100.00;98398.47;4935711;28;20033;-74
2023/03/12 04:16:27;;;;;;;7.50;3.20;;;;;;;-1.83;100.00;98402.81;4917058;28;20031;-74
2023/03/12 04:18:53;;;;;;;5.82;2.92;;;;;;;-1.70;100.00;98405.22;4914141;29;20033;-74
2023/03/12 04:21:18;;;;;;;7.10;3.08;;;;;;;-1.62;100.00;98404.56;4915663;29;20466;-75
2023/03/12 04:23:44;;;;;;;10.80;3.17;;;;;;;-1.50;100.00;98408.75;4910708;28;20366;-74
2023/03/12 04:26:09;;;;;;;8.00;3.88;;;;;;;-1.58;100.00;98385.56;4929912;28;20481;-74
2023/03/12 04:28:36;;;;;;;6.85;3.70;;;;;;;-1.37;100.00;98406.66;4912245;28;20385;-75
2023/03/12 04:31:04;;;;;;;6.43;3.22;;;;;;;-1.42;100.00;98394.78;4930985;28;20028;-74
2023/03/12 04:33:33;;;;;;;4.32;2.40;;;;;;;-1.32;100.00;98403.59;4915985;29;20028;-74
2023/03/12 04:35:58;;;;;;;9.10;3.55;;;;;;;-1.22;100.00;98412.41;4914365;29;20374;-75
2023/03/12 04:38:25;;;;;;;7.47;2.97;;;;;;;-1.13;100.00;98426.66;4929377;28;20032;-73
2023/03/12 04:40:58;;;;;;;11.75;3.58;;;;;;;-1.10;100.00;98423.75;4915860;29;20036;-75
2023/03/12 04:43:23;;;;;;;9.52;2.97;;;;;;;-1.14;100.00;98398.47;4914903;29;20517;-74
2023/03/12 04:45:48;;;;;;;5.72;3.08;;;;;;;-1.22;100.00;98399.16;4922183;28;20030;-75
2023/03/12 04:48:14;;;;;;;7.10;3.03;;;;;;;-1.14;100.00;98409.06;4918246;28;20024;-74
2023/03/12 04:50:39;;;;;;;6.43;3.10;;;;;;;-0.98;100.00;98413.81;4914553;28;20063;-74
2023/03/12 04:53:04;;;;;;;10.55;3.25;;;;;;;-1.01;100.00;98404.31;4911459;29;20516;-74
2023/03/12 04:55:30;;;;;;;7.50;3.22;;;;;;;-0.99;100.00;98413.00;4914286;28;20458;-74
2023/03/12 04:57:55;;;;;;;8.40;2.80;;;;;;;-0.93;100.00;98408.94;4914598;28;20440;-74
2023/03/12 05:00:21;;;;;;;8.50;3.03;;;;;;;-0.93;100.00;98411.59;4917290;28;20082;-74
2023/03/12 05:02:46;;;;;;;5.53;3.33;;;;;;;-1.00;100.00;98395.38;4923570;28;20035;-74
2023/03/12 05:05:11;;;;;;;10.98;3.55;;;;;;;-1.14;100.00;98369.25;4915202;29;20064;-74
2023/03/12 05:07:36;;;;;;;9.07;3.63;;;;;;;-1.05;100.00;98389.63;4911941;28;20032;-74
2023/03/12 05:10:03;;;;;;;6.03;3.33;;;;;;;-1.11;100.00;98385.72;4914829;29;20024;-73
2023/03/12 05:12:28;;;;;;;8.20;3.85;;;;;;;-0.97;100.00;98394.25;4928654;29;20031;-74
2023/03/12 05:14:54;;;;;;;8.95;3.45;;;;;;;-0.77;100.00;98411.84;4914930;29;20032;-74
2023/03/12 05:17:19;;;;;;;10.00;3.40;;;;;;;-0.64;100.00;98411.56;4922170;28;20024;-74
2023/03/12 05:19:45;;;;;;;10.45;3.72;;;;;;;-0.72;100.00;98406.13;4912668;28;20502;-75
2023/03/12 05:22:10;;;;;;;10.90;3.55;;;;;;;-0.56;100.00;98402.88;4915927;28;20047;-74
2023/03/12 05:24:35;;;;;;;7.47;3.67;;;;;;;-0.67;100.00;98393.25;4929378;28;20636;-74
2023/03/12 05:27:01;;;;;;;4.95;2.88;;;;;;;-0.65;100.00;98390.47;4912730;28;20063;-74
2023/03/12 05:29:26;;;;;;;7.05;3.25;;;;;;;-0.41;100.00;98406.78;4914534;29;20051;-75
2023/03/12 05:31:51;;;;;;;8.40;3.40;;;;;;;-0.50;100.00;98410.28;4913940;29;20035;-75
2023/03/12 05:34:17;;;;;;;8.38;3.67;;;;;;;-0.46;100.00;98414.34;4920165;28;20035;-74
2023/03/12 05:36:42;;;;;;;9.48;3.50;;;;;;;-0.55;100.00;98412.50;4912416;28;20028;-75
2023/03/12 05:39:08;;;;;;;7.82;3.00;;;;;;;-0.63;100.00;98385.81;4911329;28;20477;-75
2023/03/12 05:41:33;;;;;;;9.15;2.72;;;;;;;-0.42;100.00;98401.59;4906079;29;20036;-75
2023/03/12 05:43:59;;;;;;;10.63;3.25;;;;;;;-0.35;100.00;98389.41;4905284;28;20036;-74
2023/03/12 05:46:25;;;;;;;5.88;3.03;;;;;;;-0.29;100.00;98394.13;4934810;28;20120;-74
2023/03/12 05:48:51;;;;;;;6.43;3.15;;;;;;;-0.17;100.00;98397.47;4914088;29;20064;-72
2023/03/12 05:51:17;;;;;;;7.70;3.78;;;;;;;-0.06;100.00;98395.44;4914626;28;20109;-74
2023/03/12 05:53:43;;;;;;;8.13;3.25;;;;;;;-0.09;100.00;98373.66;4912822;29;20039;-74
2023/03/12 05:56:12;;;;;;;6.40;3.08;;;;;;;-0.02;100.00;98401.34;4912375;29;20501;-74
2023/03/12 05:58:38;;;;;;;6.18;3.60;;;;;;;0.02;100.00;98405.34;4936012;28;20040;-74
2023/03/12 06:01:15;;;;;;;6.50;3.25;;;;;;;-0.06;100.00;98394.63;4914126;28;20027;-74
2023/03/12 06:03:41;;;;;;;7.22;3.35;;;;;;;-0.12;100.00;98396.03;4909550;28;20024;-74
2023/03/12 06:06:07;;;;;;;10.95;3.35;;;;;;;-0.31;100.00;98367.72;4928536;28;20024;-74
2023/03/12 06:08:32;;;;;;;9.25;3.33;;;;;;;-0.05;100.00;98389.16;4914991;28;20020;-73
2023/03/12 06:10:58;;;;;;;6.20;3.25;;;;;;;-0.11;100.00;98376.44;4913086;28;20024;-74
2023/03/12 06:13:24;;;;;;;5.90;2.97;;;;;;;0.02;100.00;98370.78;4923582;28;20050;-78
2023/03/12 06:15:49;;;;;;;7.38;2.90;;;;;;;0.24;100.00;98379.34;4915688;28;20031;-77
2023/03/12 06:18:15;;;;;;;10.80;3.08;;;;;;;0.27;100.00;98379.91;4917595;28;20035;-78
2023/03/12 06:20:41;;;;;;;7.60;2.60;;;;;;;0.37;100.00;98354.09;4922368;28;20028;-78
2023/03/12 06:23:06;;;;;;;9.20;3.40;;;;;;;0.72;100.00;98383.56;4918261;28;20086;-79
2023/03/12 06:25:32;;;;;;;7.45;2.75;;;;;;;0.81;100.00;98390.63;4947365;28;20022;-74
2023/03/12 06:27:57;;;;;;;7.93;3.03;;;;;;;0.79;100.00;98384.63;4947480;28;20402;-75
2023/03/12 06:30:22;;;;;;;6.57;2.90;;;;;;;0.83;100.00;98378.00;4909171;28;20174;-75
2023/03/12 06:32:48;;;;;;;3.85;2.53;;;;;;;0.84;100.00;98367.22;4912771;28;20482;-78
2023/03/12 06:35:13;;;;;;;6.35;2.67;;;;;;;0.94;100.00;98382.25;4913558;28;20060;-78
2023/03/12 06:37:38;;;;;;;8.10;3.10;;;;;;;0.96;100.00;98362.47;4926285;28;20024;-79
2023/03/12 06:40:06;;;;;;;7.95;3.05;;;;;;;1.21;100.00;98384.00;4886696;28;20094;-78
2023/03/12 06:42:32;;;;;;;5.03;2.67;;;;;;;1.04;100.00;98357.22;4926610;28;20077;-77
2023/03/12 06:44:58;;;;;;;8.48;2.90;;;;;;;1.08;100.00;98371.91;4915059;28;20024;-79
2023/03/12 06:47:24;;;;;;;12.73;3.10;;;;;;;1.00;100.00;98350.53;4913360;28;20491;-77
2023/03/12 06:49:49;;;;;;;5.00;2.83;;;;;;;1.27;100.00;98367.38;4913755;28;20086;-77
2023/03/12 06:52:15;;;;;;;7.63;2.85;;;;;;;1.06;100.00;98339.25;4919059;28;20082;-79
2023/03/12 06:54:41;;;;;;;4.88;2.63;;;;;;;1.05;100.00;98352.75;4919869;28;20439;-78
2023/03/12 06:57:07;;;;;;;11.40;3.75;;;;;;;1.17;100.00;98366.63;4917958;28;20115;-78
2023/03/12 06:59:32;;;;;;;6.85;3.25;;;;;;;0.99;100.00;98342.69;4905523;28;20034;-77
2023/03/12 07:01:57;;;;;;;7.30;3.90;;;;;;;1.04;100.00;98343.88;4912753;28;20494;-78
2023/03/12 07:04:23;;;;;;;8.35;3.85;;;;;;;1.23;100.00;98350.88;4913255;28;20083;-78
2023/03/12 07:06:50;;;;;;;7.40;4.22;;;;;;;1.45;100.00;98346.88;4912672;28;20020;-77
2023/03/12 07:09:19;;;;;;;8.52;3.20;;;;;;;1.64;100.00;98360.97;4964742;23;20077;-68
2023/03/12 07:11:45;;;;;;;7.95;2.88;;;;;;;1.88;100.00;98387.78;4955068;28;20049;-63
2023/03/12 07:14:14;;;;;;;8.77;3.25;;;;;;;1.91;100.00;98381.28;4954846;28;20036;-63
2023/03/12 07:16:40;;;;;;;9.77;3.50;;;;;;;1.89;100.00;98402.81;4949253;28;20043;-63
2023/03/12 07:19:21;;;;;;;9.07;3.63;;;;;;;1.90;100.00;98401.78;4949473;28;20092;-63
2023/03/12 07:22:24;;;;;;;8.57;3.50;;;;;;;1.91;100.00;98411.50;4936221;23;20048;-71
2023/03/12 07:24:50;;;;;;;10.35;3.20;;;;;;;1.83;100.00;98383.91;4953861;23;20044;-80
2023/03/12 07:27:16;;;;;;;8.50;3.15;;;;;;;1.33;100.00;98313.47;4963367;28;20036;-80
2023/03/12 07:29:41;;;;;;;6.80;2.75;;;;;;;1.70;100.00;98369.19;4964212;28;20009;-80
2023/03/12 07:32:06;;;;;;;4.75;2.97;;;;;;;1.74;100.00;98378.53;4951231;28;20036;-80
2023/03/12 07:34:32;;;;;;;5.28;2.55;;;;;;;2.01;100.00;98402.53;4956499;28;20020;-79
2023/03/12 07:36:58;;;;;;;3.90;2.08;;;;;;;2.06;100.00;98405.53;4964322;28;20024;-79
2023/03/12 07:39:24;;;;;;;16.65;3.25;;;;;;;2.18;100.00;98393.59;4961191;28;20032;-80
2023/03/12 07:48:34;;;;;;;7.85;2.83;;;;;;;2.60;100.00;98396.25;4953476;23;20054;-63
2023/03/12 07:50:59;;;;;;;5.88;2.53;;;;;;;2.70;100.00;98400.59;4985390;28;20031;-63
2023/03/12 07:53:26;;;;;;;7.47;2.88;;;;;;;2.87;100.00;98399.66;4955802;28;20039;-63
2023/03/12 07:55:51;;;;;;;7.30;2.50;;;;;;;3.06;100.00;98401.19;4948529;28;20477;-63
2023/03/12 07:58:17;;;;;;;5.47;2.60;;;;;;;3.28;100.00;98389.00;4949089;29;20058;-63
2023/03/12 08:00:43;;;;;;;7.95;3.10;;;;;;;3.49;100.00;98389.34;5034489;28;20047;-63
2023/03/12 08:03:09;;;;;;;7.03;2.60;;;;;;;3.65;100.00;98388.47;4943710;28;20528;-63
2023/03/12 08:05:35;;;;;;;11.43;3.78;;;;;;;3.79;100.00;98388.78;4941699;28;20036;-63
2023/03/12 08:08:00;;;;;;;9.43;3.22;;;;;;;4.14;100.00;98383.00;4946015;28;22610;-63
2023/03/12 08:10:26;;;;;;;8.88;2.97;;;;;;;3.88;100.00;98395.81;4949841;29;20023;-63
2023/03/12 08:12:51;;;;;;;5.53;2.60;;;;;;;3.98;100.00;98396.41;4948089;28;20031;-63
2023/03/12 08:15:17;;;;;;;6.53;2.58;;;;;;;3.92;100.00;98394.44;4953599;28;20474;-63
2023/03/12 08:17:43;;;;;;;6.00;2.45;;;;;;;3.67;100.00;98401.69;4955885;28;20441;-63
2023/03/12 08:20:09;;;;;;;5.40;2.45;;;;;;;3.63;100.00;98403.84;4948336;29;20059;-63
2023/03/12 08:22:36;;;;;;;5.28;2.50;;;;;;;3.37;100.00;98409.38;4953588;29;20072;-63
2023/03/12 08:25:01;;;;;;;7.97;2.67;;;;;;;3.38;100.00;98403.06;4942332;28;20027;-63
2023/03/12 08:27:27;;;;;;;9.60;3.45;;;;;;;3.42;100.00;98408.88;4946637;28;20092;-63
2023/03/12 08:29:52;;;;;;;5.63;2.60;;;;;;;3.36;100.00;98399.69;4939389;28;20027;-64
2023/03/12 08:32:18;;;;;;;8.60;2.97;;;;;;;3.29;100.00;98414.72;4944671;28;20027;-64
2023/03/12 08:34:43;;;;;;;11.05;3.28;;;;;;;3.19;100.00;98412.22;4939731;28;20039;-66
2023/03/12 08:37:10;;;;;;;6.82;3.42;;;;;;;3.10;100.00;98421.25;4943846;28;20126;-67
2023/03/12 08:39:35;;;;;;;8.18;2.70;;;;;;;2.97;100.00;98421.72;4949176;28;20050;-67
2023/03/12 08:42:01;;;;;;;11.85;3.40;;;;;;;2.91;100.00;98424.19;4940016;29;20495;-68
2023/03/12 08:44:27;;;;;;;8.15;3.67;;;;;;;2.92;100.00;98428.56;4935135;29;20034;-68
2023/03/12 08:46:52;;;;;;;7.03;3.28;;;;;;;3.12;100.00;98416.56;4948213;28;20036;-67
2023/03/12 08:49:21;;;;;;;5.80;3.20;;;;;;;3.45;100.00;98421.91;4944930;28;20556;-66
2023/03/12 08:51:50;;;;;;;8.30;3.45;;;;;;;3.64;100.00;98410.03;4953985;29;20027;-66
2023/03/12 08:54:16;;;;;;;7.38;3.25;;;;;;;4.02;100.00;98411.16;4953039;28;20815;-66
2023/03/12 08:56:42;;;;;;;8.55;3.58;;;;;;;4.56;100.00;98405.09;4959413;28;20027;-66
2023/03/12 08:59:12;;;;;;;5.13;2.75;;;;;;;4.60;100.00;98409.09;4954109;28;20030;-65
2023/03/12 09:01:38;;;;;;;8.20;3.13;;;;;;;4.50;100.00;98403.94;4950721;28;20122;-65
2023/03/12 09:04:04;;;;;;;12.13;3.60;;;;;;;4.50;100.00;98401.25;4954697;28;20056;-65
2023/03/12 09:06:30;;;;;;;6.80;2.88;;;;;;;4.54;100.00;98396.41;4952242;28;20111;-65
2023/03/12 09:08:56;;;;;;;4.68;3.00;;;;;;;4.42;100.00;98390.59;4949362;28;20054;-65
2023/03/12 09:11:25;;;;;;;8.48;3.00;;;;;;;4.52;100.00;98393.06;4957615;28;20027;-65
2023/03/12 09:13:50;;;;;;;8.23;3.20;;;;;;;4.88;100.00;98395.22;4951671;28;20065;-65
2023/03/12 09:16:15;;;;;;;6.15;3.22;;;;;;;4.81;100.00;98392.41;4944335;28;20059;-65
2023/03/12 09:18:41;;;;;;;8.55;3.35;;;;;;;4.70;100.00;98393.63;4941400;28;20055;-65
2023/03/12 09:21:06;;;;;;;6.20;3.00;;;;;;;4.47;100.00;98390.06;4944971;28;20367;-70
2023/03/12 09:23:31;;;;;;;5.03;3.22;;;;;;;4.36;100.00;98400.16;4939590;28;20097;-71
2023/03/12 09:25:57;;;;;;;7.50;3.75;;;;;;;4.43;100.00;98396.78;4939726;29;20471;-71
2023/03/12 09:28:22;;;;;;;7.13;3.72;;;;;;;4.49;100.00;98399.59;5017640;28;20034;-71
2023/03/12 09:30:48;;;;;;;10.15;3.50;;;;;;;4.57;100.00;98406.75;5021906;28;20023;-70
2023/03/12 09:33:15;;;;;;;13.73;4.57;;;;;;;4.55;100.00;98412.28;4946828;28;20540;-69
2023/03/12 09:35:41;;;;;;;10.35;4.22;;;;;;;4.59;100.00;98405.59;4942841;28;20050;-70
2023/03/12 09:38:07;;;;;;;7.90;4.13;;;;;;;4.54;100.00;98415.16;4945900;28;20447;-70
2023/03/12 09:40:37;;;;;;;8.30;4.43;;;;;;;4.64;100.00;98420.28;4949790;29;20035;-70
2023/03/12 09:43:09;;;;;;;8.52;4.32;;;;;;;4.85;100.00;98423.22;4945819;28;20105;-70
2023/03/12 09:45:42;;;;;;;10.63;4.63;;;;;;;5.00;100.00;98432.16;4949988;28;20073;-69
2023/03/12 09:48:16;;;;;;;9.10;4.22;;;;;;;4.67;100.00;98426.16;4937171;28;20027;-70
2023/03/12 09:50:44;;;;;;;8.23;4.38;;;;;;;4.41;100.00;98420.25;4950494;28;20033;-69
2023/03/12 09:53:09;;;;;;;10.17;4.73;;;;;;;4.56;100.00;98422.00;4953405;28;20015;-65
2023/03/12 09:55:38;;;;;;;9.93;4.63;;;;;;;4.82;100.00;98415.50;4948212;28;20033;-69
2023/03/12 09:58:29;;;;;;;11.98;4.55;;;;;;;5.26;100.00;98414.88;4939550;28;20020;-70
2023/03/12 10:01:35;;;;;;;13.38;4.78;;;;;;;5.23;100.00;98417.94;4936006;28;20062;-69
2023/03/12 10:04:03;;;;;;;9.35;4.50;;;;;;;5.14;100.00;98414.47;4917036;28;20509;-64
2023/03/12 10:06:36;;;;;;;8.98;5.35;;;;;;;5.40;100.00;98416.81;5023137;28;20134;-64
2023/03/12 10:09:39;;;;;;;13.35;6.65;;;;;;;5.54;100.00;98417.03;4941780;28;20019;-64
2023/03/12 10:12:19;;;;;;;13.50;6.18;;;;;;;5.49;100.00;98415.69;4948095;28;20034;-64
2023/03/12 10:15:12;;;;;;;11.68;5.43;;;;;;;5.25;100.00;98414.06;5033765;28;20030;-64
2023/03/12 10:17:43;;;;;;;9.90;4.88;;;;;;;5.08;100.00;98411.66;4948580;28;20054;-64
2023/03/12 10:20:31;;;;;;;8.25;5.20;;;;;;;5.12;100.00;98429.06;4936704;29;20032;-69
2023/03/12 10:23:09;;;;;;;11.25;6.22;;;;;;;4.81;100.00;98424.56;5022149;28;20042;-68
2023/03/12 10:25:58;;;;;;;11.25;5.80;;;;;;;4.95;100.00;98436.38;4943910;28;20115;-63
2023/03/12 10:28:53;;;;;;;11.75;6.82;;;;;;;5.19;100.00;98432.72;4942154;28;20062;-68
2023/03/12 10:31:52;;;;;;;9.68;5.00;;;;;;;5.37;100.00;98446.66;5025817;28;20035;-69
2023/03/12 10:34:31;;;;;;;11.05;5.40;;;;;;;5.41;100.00;98439.91;4941563;28;20043;-64
2023/03/12 10:37:04;;;;;;;7.85;5.28;;;;;;;5.49;100.00;98445.22;4946868;28;20096;-70
2023/03/12 10:39:29;;;;;;;12.30;5.43;;;;;;;5.75;100.00;98440.50;5015859;28;20015;-64
2023/03/12 10:41:58;;;;;;;15.55;7.50;;;;;;;5.92;100.00;98442.00;4937315;28;20085;-69
2023/03/12 10:44:24;;;;;;;14.80;6.60;;;;;;;5.85;100.00;98455.31;4943013;29;20028;-64
2023/03/12 10:46:58;;;;;;;15.20;6.90;;;;;;;5.97;100.00;98445.00;4943952;28;20035;-70
2023/03/12 10:49:25;;;;;;;11.35;6.40;;;;;;;6.02;100.00;98456.03;4945385;28;20441;-70
2023/03/12 10:51:58;;;;;;;9.55;5.82;;;;;;;6.01;100.00;98456.22;4935929;28;20443;-69
2023/03/12 10:54:39;;;;;;;11.77;5.53;;;;;;;6.22;100.00;98455.50;4949370;28;20031;-70
2023/03/12 10:57:06;;;;;;;14.20;6.32;;;;;;;6.07;100.00;98464.38;4938721;29;20032;-64
2023/03/12 10:59:35;;;;;;;9.02;5.43;;;;;;;6.13;100.00;98463.66;4942799;29;20027;-69
2023/03/12 11:02:01;;;;;;;9.90;5.68;;;;;;;6.21;100.00;98457.38;4949094;28;20035;-65
2023/03/12 11:04:31;;;;;;;12.00;5.88;;;;;;;6.17;100.00;98474.84;4945563;28;20082;-70
2023/03/12 11:07:12;;;;;;;12.90;6.55;;;;;;;5.98;100.00;98470.03;4933056;28;20089;-65
2023/03/12 11:09:37;;;;;;;13.73;6.72;;;;;;;6.07;100.00;98466.22;5023910;28;20054;-66
2023/03/12 11:12:23;;;;;;;10.18;5.72;;;;;;;6.22;100.00;98456.34;4933053;28;20028;-69
2023/03/12 11:14:48;;;;;;;10.60;5.30;;;;;;;6.03;100.00;98470.31;4941387;28;20044;-68
2023/03/12 11:17:23;;;;;;;15.63;6.63;;;;;;;6.24;100.00;98462.38;4949986;28;20032;-70
2023/03/12 11:19:48;;;;;;;11.27;5.55;;;;;;;6.34;100.00;98465.63;4938463;28;20070;-68
2023/03/12 11:22:27;;;;;;;11.05;5.97;;;;;;;6.40;100.00;98469.41;4949612;28;20035;-70
2023/03/12 11:24:59;;;;;;;11.55;6.15;;;;;;;6.43;100.00;98460.16;4958281;28;20031;-67
2023/03/12 11:27:43;;;;;;;11.10;6.28;;;;;;;6.89;100.00;98454.53;4945294;28;20046;-69
2023/03/12 11:30:16;;;;;;;15.52;6.93;;;;;;;6.96;100.00;98456.28;5019916;28;20169;-69
2023/03/12 11:32:48;;;;;;;10.38;6.32;;;;;;;7.43;100.00;98457.63;4944657;28;20031;-69
2023/03/12 11:35:16;;;;;;;12.35;5.68;;;;;;;8.86;100.00;98446.69;4935453;28;20023;-69
2023/03/12 11:38:16;;;;;;;8.68;5.28;;;;;;;10.37;100.00;98433.56;4941421;28;20074;-65